Time;durP1;ratioP1;P1;durP2;ratioP2;P2;SDS_P1;SDS_P2;PMS_P1;PMS_P2;Temp;Humidity;BMP_temperature;BMP_pressure;BME280_temperature;BME280_humidity;BME280_pressure;Samples;Min_cycle;Max_cycle;Signal;HPM_P1;HPM_P2
2022/11/18 00:01:22;;;;;;;;;;;11.90;67.90;;;7.51;100.00;93847.97;4952518;28;19931;-51
2022/11/18 00:03:51;;;;;;;;;;;11.90;68.00;;;7.50;100.00;93852.50;4954135;28;19914;-54
2022/11/18 00:06:25;;;;;;;;;;;11.90;68.00;;;7.51;100.00;93838.16;4971320;28;19910;-48
2022/11/18 00:08:53;;;;;;;;;;;11.90;68.10;;;7.49;100.00;93845.63;4970774;28;19909;-51
2022/11/18 00:14:23;;;;;;;;;;;11.90;68.10;;;7.51;100.00;93869.94;4968651;28;20371;-49
2022/11/18 00:17:04;;;;;;;;;;;11.90;68.10;;;7.52;100.00;93868.91;4970350;28;19929;-53
2022/11/18 00:19:35;;;;;;;;;;;11.90;68.20;;;7.53;100.00;93873.13;4970964;28;19909;-48
2022/11/18 00:22:02;;;;;;;;;;;11.90;68.20;;;7.56;100.00;93872.53;4970435;28;19945;-48
2022/11/18 00:24:28;;;;;;;;;;;11.90;68.20;;;7.58;100.00;93877.53;4958224;28;19936;-50
2022/11/18 00:26:54;;;;;;;;;;;12.00;68.30;;;7.56;100.00;93875.19;4954875;28;19910;-55
2022/11/18 00:29:22;;;;;;;;;;;11.90;68.20;;;7.55;100.00;93878.09;4950725;28;20013;-51
2022/11/18 00:31:48;;;;;;;;;;;12.00;68.30;;;7.57;100.00;93876.75;4951226;28;20000;-50
2022/11/18 00:34:18;;;;;;;;;;;12.00;68.30;;;7.58;100.00;93888.13;4950572;28;19938;-50
2022/11/18 00:36:47;;;;;;;;;;;12.00;68.30;;;7.51;100.00;93893.00;4953001;28;20443;-51
2022/11/18 00:39:17;;;;;;;;;;;12.00;68.40;;;7.43;100.00;93889.16;4951414;28;19917;-53
2022/11/18 00:44:53;;;;;;;;;;;11.90;68.70;;;7.47;100.00;93899.97;4922929;29;19910;-50
2022/11/18 00:47:21;;;;;;;;;;;11.90;68.80;;;7.52;100.00;93895.38;4908986;29;19915;-51
2022/11/18 00:49:56;;;;;;;;;;;11.90;68.90;;;7.54;100.00;93897.75;4924370;28;19910;-48
2022/11/18 00:52:25;;;;;;;;;;;11.90;68.90;;;7.57;100.00;93905.13;4952119;28;20000;-52
2022/11/18 00:54:53;;;;;;;;;;;11.90;69.00;;;7.55;100.00;93905.41;4951236;28;19957;-49
2022/11/18 00:57:19;;;;;;;;;;;11.90;69.00;;;7.50;100.00;93910.78;4950536;28;19972;-55
2022/11/18 00:59:48;;;;;;;;;;;11.90;69.10;;;7.52;100.00;93910.47;4953898;28;20339;-54
2022/11/18 01:02:19;;;;;;;;;;;11.90;69.10;;;7.49;100.00;93914.50;4971519;28;20339;-50
2022/11/18 01:04:45;;;;;;;;;;;11.90;69.20;;;7.44;100.00;93916.44;4961248;28;20292;-48
2022/11/18 01:07:14;;;;;;;;;;;11.90;70.10;;;7.42;100.00;93920.13;4966622;28;20323;-55
2022/11/18 01:09:45;;;;;;;;;;;11.80;69.30;;;7.41;100.00;93921.22;4936787;28;19910;-51
2022/11/18 01:14:58;;;;;;;;;;;11.80;69.40;;;7.29;100.00;93939.38;4952818;29;20277;-49
2022/11/18 01:17:24;;;;;;;;;;;11.80;69.50;;;7.21;100.00;93947.16;4958551;28;19918;-50
2022/11/18 01:19:50;;;;;;;;;;;11.70;69.50;;;7.21;100.00;93949.81;4934867;29;19910;-51
2022/11/18 01:22:15;;;;;;;;;;;11.70;69.70;;;7.23;100.00;93955.63;4953368;28;19953;-53
2022/11/18 01:24:47;;;;;;;;;;;11.60;69.60;;;7.25;100.00;93951.63;4958273;28;19910;-53
2022/11/18 01:27:13;;;;;;;;;;;11.60;69.70;;;7.24;100.00;93957.19;4953887;28;19941;-52
2022/11/18 01:29:41;;;;;;;;;;;11.60;69.80;;;7.19;100.00;93952.75;4973533;28;19953;-51
2022/11/18 01:32:10;;;;;;;;;;;11.50;69.80;;;7.18;100.00;93953.81;4941772;28;19997;-51
2022/11/18 01:34:39;;;;;;;;;;;11.50;69.80;;;7.20;100.00;93954.31;4939022;28;19914;-53
2022/11/18 01:37:05;;;;;;;;;;;11.50;69.80;;;7.17;100.00;93955.66;4954404;28;20023;-52
2022/11/18 01:39:31;;;;;;;;;;;11.50;69.90;;;7.13;100.00;93954.66;4957956;28;19954;-51
2022/11/18 01:41:59;;;;;;;;;;;11.40;69.80;;;7.12;100.00;93936.41;4966407;28;19909;-49
2022/11/18 01:45:08;;;;;;;;;;;11.40;69.80;;;7.12;100.00;93941.72;4955680;28;19913;-51
2022/11/18 01:48:15;;;;;;;;;;;11.40;69.80;;;7.10;100.00;93949.91;4972736;28;20465;-49
2022/11/18 01:51:08;;;;;;;;;;;11.40;69.80;;;7.07;100.00;93955.00;4989760;28;19910;-49
2022/11/18 01:53:41;;;;;;;;;;;11.40;69.80;;;7.09;100.00;93964.25;4959927;28;19918;-50
2022/11/18 01:56:15;;;;;;;;;;;11.40;70.00;;;7.05;100.00;93965.06;4954730;28;20403;-49
2022/11/18 01:58:53;;;;;;;;;;;11.30;69.90;;;7.06;100.00;93966.66;4950433;28;19918;-50
2022/11/18 02:01:22;;;;;;;;;;;11.30;70.00;;;7.03;100.00;93981.25;4938662;28;19918;-53
2022/11/18 02:03:56;;;;;;;;;;;11.30;70.00;;;7.01;100.00;93986.03;4958453;28;19921;-50
2022/11/18 02:06:21;;;;;;;;;;;11.40;70.00;;;7.04;100.00;93984.69;4941331;28;20026;-49
2022/11/18 02:08:50;;;;;;;;;;;11.40;70.00;;;7.04;100.00;93988.13;4974464;28;20044;-49
2022/11/18 02:11:55;;;;;;;;;;;11.40;70.10;;;7.05;100.00;93987.06;4973790;28;20341;-50
2022/11/18 02:14:16;;;;;;;;;;;11.30;70.10;;;7.00;100.00;93989.75;4971239;28;19949;-53
2022/11/18 02:17:19;;;;;;;;;;;11.40;70.00;;;6.97;100.00;93974.44;4956666;28;20387;-48
2022/11/18 02:20:56;;;;;;;;;;;11.40;70.00;;;6.97;100.00;93981.59;4974447;28;19916;-49
2022/11/18 02:23:51;;;;;;;;;;;11.40;70.00;;;6.98;100.00;93986.59;4946109;28;19918;-48
2022/11/18 02:26:50;;;;;;;;;;;11.40;70.00;;;7.00;100.00;93996.91;4956938;28;19914;-52
2022/11/18 02:30:09;;;;;;;;;;;11.40;70.00;;;6.96;100.00;94004.63;4966077;28;20396;-52
2022/11/18 02:32:51;;;;;;;;;;;11.40;70.10;;;6.95;100.00;94014.41;4966068;28;20005;-53
2022/11/18 02:35:28;;;;;;;;;;;11.40;70.10;;;6.92;100.00;94020.25;4957426;28;20001;-52
2022/11/18 02:38:04;;;;;;;;;;;11.40;70.10;;;6.94;100.00;94025.28;4971975;28;20463;-52
2022/11/18 02:40:42;;;;;;;;;;;11.40;70.10;;;6.93;100.00;94029.78;4973450;28;19976;-49
2022/11/18 02:43:18;;;;;;;;;;;11.40;70.10;;;6.93;100.00;94021.84;4972769;28;19918;-51
2022/11/18 02:45:51;;;;;;;;;;;11.40;70.00;;;6.92;100.00;94022.13;4973670;28;19951;-48
2022/11/18 02:48:25;;;;;;;;;;;11.40;69.90;;;6.93;100.00;94021.84;4972624;28;19914;-53
2022/11/18 02:50:53;;;;;;;;;;;11.40;69.90;;;6.92;100.00;94014.97;4956805;28;19913;-49
2022/11/18 02:53:30;;;;;;;;;;;11.40;70.00;;;6.93;100.00;94015.78;4958711;28;19914;-48
2022/11/18 02:55:59;;;;;;;;;;;11.30;70.00;;;6.95;100.00;94013.63;4953625;28;20001;-50
2022/11/18 02:58:27;;;;;;;;;;;11.30;70.00;;;6.88;100.00;94010.53;4956356;28;19922;-52
2022/11/18 03:00:57;;;;;;;;;;;11.40;70.10;;;6.91;100.00;94012.59;4972557;28;20055;-49
2022/11/18 03:03:34;;;;;;;;;;;11.30;70.00;;;6.87;100.00;94006.31;4968889;28;20288;-52
2022/11/18 03:06:27;;;;;;;;;;;11.30;70.10;;;6.84;100.00;94012.16;4973559;28;19909;-51
2022/11/18 03:09:29;;;;;;;;;;;11.30;70.00;;;6.79;100.00;94012.97;4973123;28;19910;-49
2022/11/18 03:12:41;;;;;;;;;;;11.30;70.10;;;6.81;100.00;94015.34;4968926;28;19925;-52
2022/11/18 03:15:56;;;;;;;;;;;11.30;70.20;;;6.72;100.00;94020.44;4956008;28;19910;-49
2022/11/18 03:18:53;;;;;;;;;;;11.20;70.20;;;6.70;100.00;94019.94;4937276;28;19921;-51
2022/11/18 03:21:38;;;;;;;;;;;11.20;70.20;;;6.69;100.00;94026.28;4953333;28;20347;-52
2022/11/18 03:24:24;;;;;;;;;;;11.20;70.20;;;6.65;100.00;94028.72;4962022;28;20129;-49
2022/11/18 03:27:18;;;;;;;;;;;11.10;70.20;;;6.68;100.00;94022.09;4955280;28;19916;-50
2022/11/18 03:30:14;;;;;;;;;;;11.10;70.40;;;6.67;100.00;94036.34;4943803;28;20012;-51
2022/11/18 03:32:51;;;;;;;;;;;11.20;70.50;;;6.66;100.00;94029.50;4952670;28;19950;-51
2022/11/18 03:35:30;;;;;;;;;;;11.10;70.50;;;6.70;100.00;94046.38;4931889;28;19914;-49
2022/11/18 03:38:06;;;;;;;;;;;11.20;70.60;;;6.75;100.00;94049.00;4936575;28;19921;-52
2022/11/18 03:40:38;;;;;;;;;;;11.20;70.60;;;6.77;100.00;94054.81;4963811;28;20275;-51
2022/11/18 03:43:21;;;;;;;;;;;11.20;70.50;;;6.77;100.00;94057.47;4955516;28;19910;-51
2022/11/18 03:46:01;;;;;;;;;;;11.20;70.50;;;6.78;100.00;94058.25;4970260;28;20304;-49
2022/11/18 03:48:39;;;;;;;;;;;11.30;70.60;;;6.81;100.00;94065.63;4955428;28;20398;-51
2022/11/18 03:51:09;;;;;;;;;;;11.30;70.50;;;6.85;100.00;94078.03;4939383;28;19921;-50
2022/11/18 03:53:57;;;;;;;;;;;11.30;70.40;;;6.83;100.00;94077.53;4943849;28;20418;-50
2022/11/18 03:56:52;;;;;;;;;;;11.30;70.50;;;6.80;100.00;94077.28;4940779;28;19988;-53
2022/11/18 03:59:27;;;;;;;;;;;11.20;70.50;;;6.80;100.00;94091.31;4970772;28;20395;-56
2022/11/18 04:02:05;;;;;;;;;;;11.20;70.60;;;6.81;100.00;94098.19;4955746;28;20004;-56
2022/11/18 04:04:34;;;;;;;;;;;11.10;70.60;;;6.79;100.00;94095.00;4935985;28;19932;-52
2022/11/18 04:07:31;;;;;;;;;;;11.20;70.70;;;6.69;100.00;94095.88;4951804;28;20109;-56
2022/11/18 04:10:10;;;;;;;;;;;11.10;70.70;;;6.70;100.00;94091.38;4946371;28;19961;-57
2022/11/18 04:13:15;;;;;;;;;;;11.10;70.70;;;6.66;100.00;94100.94;4959690;28;19960;-55
2022/11/18 04:15:42;;;;;;;;;;;11.10;70.70;;;6.65;100.00;94094.06;4972046;28;19988;-53
2022/11/18 04:18:09;;;;;;;;;;;11.10;70.70;;;6.59;100.00;94093.31;4976952;28;20475;-53
2022/11/18 04:20:36;;;;;;;;;;;11.00;70.70;;;6.59;100.00;94097.81;4967908;28;19913;-55
2022/11/18 04:23:04;;;;;;;;;;;11.00;70.70;;;6.61;100.00;94107.06;4965014;28;19910;-51
2022/11/18 04:25:30;;;;;;;;;;;11.00;70.70;;;6.62;100.00;94100.69;4970985;28;19910;-53
2022/11/18 04:28:02;;;;;;;;;;;11.00;70.70;;;6.62;100.00;94108.63;4953527;28;19916;-56
2022/11/18 04:30:29;;;;;;;;;;;11.00;70.70;;;6.64;100.00;94105.72;4952456;28;20012;-56
2022/11/18 04:32:55;;;;;;;;;;;11.00;70.70;;;6.61;100.00;94116.84;4969476;28;19918;-57
2022/11/18 04:35:20;;;;;;;;;;;11.00;70.70;;;6.59;100.00;94111.84;4976947;28;20269;-52
2022/11/18 04:37:46;;;;;;;;;;;11.00;70.70;;;6.58;100.00;94117.38;4955461;28;19967;-54
2022/11/18 04:40:12;;;;;;;;;;;11.00;70.70;;;6.60;100.00;94120.56;4964762;28;19917;-53
2022/11/18 04:42:38;;;;;;;;;;;11.00;70.70;;;6.62;100.00;94121.88;4970865;28;20008;-55
2022/11/18 04:45:16;;;;;;;;;;;11.10;70.80;;;6.63;100.00;94120.78;4986786;28;19964;-52
2022/11/18 04:47:41;;;;;;;;;;;11.10;70.70;;;6.61;100.00;94122.13;4974502;28;20411;-56
2022/11/18 04:50:10;;;;;;;;;;;11.10;70.70;;;6.61;100.00;94112.38;4950924;28;19910;-49
2022/11/18 04:52:36;;;;;;;;;;;11.10;70.70;;;6.53;100.00;94128.03;4960804;28;20339;-56
2022/11/18 04:55:02;;;;;;;;;;;11.10;70.70;;;6.55;100.00;94112.66;4971868;28;19909;-52
2022/11/18 04:57:30;;;;;;;;;;;11.10;70.70;;;6.54;100.00;94124.31;4971940;28;19960;-55
2022/11/18 04:59:56;;;;;;;;;;;11.10;70.70;;;6.52;100.00;94121.94;4963365;28;19953;-51
2022/11/18 05:02:22;;;;;;;;;;;11.10;70.60;;;6.50;100.00;94124.06;4951278;28;19960;-55
2022/11/18 05:04:51;;;;;;;;;;;11.00;70.50;;;6.52;100.00;94124.59;4957362;28;19913;-56
2022/11/18 05:07:16;;;;;;;;;;;11.10;70.60;;;6.52;100.00;94137.00;4951382;29;19910;-52
2022/11/18 05:09:52;;;;;;;;;;;11.10;70.60;;;6.52;100.00;94121.94;4951695;28;19917;-55
2022/11/18 05:15:17;;;;;;;;;;;11.00;70.50;;;6.48;100.00;94140.19;4952334;29;19917;-53
2022/11/18 05:17:46;;;;;;;;;;;11.10;70.60;;;6.46;100.00;94144.19;4969682;28;20008;-52
2022/11/18 05:20:12;;;;;;;;;;;11.10;70.60;;;6.47;100.00;94145.78;4938142;28;19963;-50
2022/11/18 05:22:41;;;;;;;;;;;11.00;70.60;;;6.49;100.00;94149.72;4961968;28;19914;-52
2022/11/18 05:25:08;;;;;;;;;;;11.00;70.60;;;6.47;100.00;94159.00;4935562;29;20004;-54
2022/11/18 05:27:34;;;;;;;;;;;11.00;70.60;;;6.46;100.00;94155.56;4936055;28;20462;-51
2022/11/18 05:29:59;;;;;;;;;;;11.00;70.60;;;6.44;100.00;94154.25;4980098;28;19961;-54
2022/11/18 05:32:25;;;;;;;;;;;11.00;70.60;;;6.43;100.00;94153.47;4951012;29;19914;-56
2022/11/18 05:34:51;;;;;;;;;;;11.00;70.60;;;6.45;100.00;94153.97;4953656;28;20036;-56
2022/11/18 05:37:17;;;;;;;;;;;11.00;70.60;;;6.46;100.00;94157.44;4967893;28;19917;-54
2022/11/18 05:39:43;;;;;;;;;;;11.00;70.70;;;6.46;100.00;94166.16;4938267;28;19917;-57
2022/11/18 05:44:54;;;;;;;;;;;11.00;70.70;;;6.48;100.00;94158.72;4951311;29;19960;-56
2022/11/18 05:47:19;;;;;;;;;;;11.00;70.70;;;6.49;100.00;94168.25;4945964;28;19949;-52
2022/11/18 05:49:48;;;;;;;;;;;11.00;70.70;;;6.49;100.00;94173.53;4969862;28;20414;-51
2022/11/18 05:52:14;;;;;;;;;;;11.00;70.70;;;6.40;100.00;94187.63;4952709;28;20012;-52
2022/11/18 05:54:49;;;;;;;;;;;11.00;70.60;;;6.40;100.00;94198.97;4953666;28;20013;-57
2022/11/18 05:57:15;;;;;;;;;;;11.00;70.60;;;6.26;100.00;94197.97;4950860;29;19940;-54
2022/11/18 05:59:46;;;;;;;;;;;11.00;70.60;;;6.10;100.00;94209.66;4968828;28;19917;-56
2022/11/18 06:02:20;;;;;;;;;;;10.90;70.50;;;5.91;100.00;94206.78;4970171;28;20284;-55
2022/11/18 06:05:00;;;;;;;;;;;10.70;70.40;;;5.82;100.00;94214.47;4953086;28;20357;-51
2022/11/18 06:07:38;;;;;;;;;;;10.60;70.50;;;5.73;100.00;94211.56;4962185;28;19968;-53
2022/11/18 06:10:05;;;;;;;;;;;10.50;70.50;;;5.74;100.00;94215.81;4952817;28;19972;-55
2022/11/18 06:12:40;;;;;;;;;;;10.40;70.70;;;5.74;100.00;94220.31;4972201;28;19921;-54
2022/11/18 06:15:29;;;;;;;;;;;10.40;70.90;;;5.71;100.00;94228.75;4957997;28;19909;-48
2022/11/18 06:18:17;;;;;;;;;;;10.30;71.00;;;5.74;100.00;94230.88;4956496;28;20008;-49
2022/11/18 06:20:44;;;;;;;;;;;10.30;71.30;;;5.74;100.00;94236.16;4969553;28;20004;-46
2022/11/18 06:23:10;;;;;;;;;;;10.20;71.30;;;5.72;100.00;94243.53;4953380;28;20390;-47
2022/11/18 06:25:43;;;;;;;;;;;10.20;71.40;;;5.76;100.00;94249.88;4954016;28;19917;-49
2022/11/18 06:28:12;;;;;;;;;;;10.20;71.50;;;5.74;100.00;94249.38;4949100;28;20540;-47
2022/11/18 06:30:39;;;;;;;;;;;10.20;71.50;;;5.70;100.00;94257.03;4962700;28;19914;-47
2022/11/18 06:33:04;;;;;;;;;;;10.20;71.60;;;5.69;100.00;94255.44;4955953;28;19964;-47
2022/11/18 06:35:33;;;;;;;;;;;10.20;71.60;;;5.65;100.00;94248.31;4972835;28;19909;-47
2022/11/18 06:37:59;;;;;;;;;;;10.20;71.60;;;5.66;100.00;94258.59;4940525;28;20367;-50
2022/11/18 06:40:25;;;;;;;;;;;10.10;71.60;;;5.64;100.00;94258.09;4946006;28;19917;-46
2022/11/18 06:45:35;;;;;;;;;;;10.20;71.60;;;5.67;100.00;94275.25;4955039;28;20037;-46
2022/11/18 06:48:04;;;;;;;;;;;10.20;71.70;;;5.66;100.00;94278.94;4988577;28;20004;-46
2022/11/18 06:50:30;;;;;;;;;;;10.20;71.60;;;5.63;100.00;94285.56;4955283;28;19961;-50
2022/11/18 06:52:59;;;;;;;;;;;10.20;71.60;;;5.68;100.00;94282.91;4972495;28;19918;-46
2022/11/18 06:55:25;;;;;;;;;;;10.20;71.60;;;5.67;100.00;94294.56;4956125;28;20364;-48
2022/11/18 06:57:51;;;;;;;;;;;10.20;71.50;;;5.69;100.00;94291.63;4972529;28;19914;-47
2022/11/18 07:00:17;;;;;;;;;;;10.20;71.50;;;5.72;100.00;94291.09;4955494;28;19917;-47
2022/11/18 07:02:43;;;;;;;;;;;10.20;71.50;;;5.73;100.00;94292.69;4971716;28;19943;-50
2022/11/18 07:05:08;;;;;;;;;;;10.20;71.50;;;5.74;100.00;94295.06;4954102;28;19917;-46
2022/11/18 07:07:35;;;;;;;;;;;10.20;71.50;;;5.78;100.00;94308.53;4953835;28;19914;-48
2022/11/18 07:10:01;;;;;;;;;;;10.20;71.50;;;5.78;100.00;94306.69;4957333;28;19936;-46
2022/11/18 07:12:26;;;;;;;;;;;10.30;71.60;;;5.75;100.00;94317.78;4972421;28;19918;-47
2022/11/18 07:14:52;;;;;;;;;;;10.30;71.50;;;5.73;100.00;94321.75;4939557;28;20004;-48
2022/11/18 07:17:18;;;;;;;;;;;10.30;71.50;;;5.75;100.00;94323.06;4954717;28;19996;-48
2022/11/18 07:19:47;;;;;;;;;;;10.30;71.50;;;5.77;100.00;94328.09;4970737;28;19917;-53
2022/11/18 07:22:13;;;;;;;;;;;10.30;71.50;;;5.75;100.00;94338.94;4968809;28;19910;-51
2022/11/18 07:24:39;;;;;;;;;;;10.30;71.40;;;5.74;100.00;94344.50;4953385;28;19917;-47
2022/11/18 07:27:05;;;;;;;;;;;10.30;71.40;;;5.70;100.00;94346.06;4952432;28;19914;-47
2022/11/18 07:29:31;;;;;;;;;;;10.30;71.40;;;5.74;100.00;94349.78;4949858;28;19913;-51
2022/11/18 07:31:59;;;;;;;;;;;10.30;71.40;;;5.84;100.00;94352.41;4942053;28;19914;-48
2022/11/18 07:34:25;;;;;;;;;;;10.40;71.50;;;5.86;100.00;94345.03;4954298;28;20439;-46
2022/11/18 07:36:51;;;;;;;;;;;10.40;71.50;;;5.90;100.00;94356.66;4972598;28;19914;-50
2022/11/18 07:39:20;;;;;;;;;;;10.40;71.50;;;5.91;100.00;94352.16;4972374;28;20008;-46
2022/11/18 07:41:48;;;;;;;;;;;10.40;71.40;;;5.94;100.00;94360.38;4979456;28;20340;-46
2022/11/18 07:44:23;;;;;;;;;;;10.50;71.50;;;5.89;100.00;94359.53;4952994;28;19953;-46
2022/11/18 07:46:51;;;;;;;;;;;10.50;71.40;;;5.92;100.00;94366.94;4952946;28;20000;-47
2022/11/18 07:49:17;;;;;;;;;;;10.50;71.30;;;5.89;100.00;94364.81;4957662;28;19910;-46
2022/11/18 07:51:43;;;;;;;;;;;10.50;71.30;;;5.92;100.00;94366.94;4952542;28;19917;-47
2022/11/18 07:54:12;;;;;;;;;;;10.60;71.40;;;5.94;100.00;94367.50;4950045;28;19916;-51
2022/11/18 07:56:39;;;;;;;;;;;10.50;71.30;;;5.96;100.00;94368.84;4951873;28;19990;-49
2022/11/18 07:59:14;;;;;;;;;;;10.60;71.30;;;5.95;100.00;94363.78;4948663;28;19917;-51
2022/11/18 08:01:39;;;;;;;;;;;10.70;71.30;;;5.99;100.00;94373.59;4953658;28;19917;-47
2022/11/18 08:04:11;;;;;;;;;;;10.70;71.30;;;6.03;100.00;94381.78;4938413;28;19909;-50
2022/11/18 08:06:40;;;;;;;;;;;10.70;71.30;;;6.06;100.00;94377.81;4987824;28;19956;-47
2022/11/18 08:09:07;;;;;;;;;;;10.80;71.30;;;6.11;100.00;94375.16;4938996;28;19918;-46
2022/11/18 08:11:33;;;;;;;;;;;10.80;71.30;;;6.13;100.00;94386.28;4954554;28;19921;-46
2022/11/18 08:14:02;;;;;;;;;;;10.90;71.40;;;6.14;100.00;94379.91;4939799;28;19917;-50
2022/11/18 08:16:28;;;;;;;;;;;10.90;71.20;;;6.19;100.00;94385.22;4954599;28;19913;-46
2022/11/18 08:18:54;;;;;;;;;;;11.00;71.20;;;6.27;100.00;94382.03;4956105;28;19976;-47
2022/11/18 08:21:29;;;;;;;;;;;11.00;71.10;;;6.29;100.00;94390.47;4952152;28;19920;-48
2022/11/18 08:23:57;;;;;;;;;;;11.10;71.10;;;6.40;100.00;94391.28;4954874;28;19936;-46
2022/11/18 08:26:24;;;;;;;;;;;11.20;71.10;;;6.48;100.00;94388.06;4955427;28;19932;-46
2022/11/18 08:28:50;;;;;;;;;;;11.30;71.00;;;6.49;100.00;94381.75;4954144;28;20009;-47
2022/11/18 08:31:26;;;;;;;;;;;11.40;70.90;;;6.53;100.00;94385.44;4945690;28;19916;-47
2022/11/18 08:34:05;;;;;;;;;;;11.50;70.80;;;6.65;100.00;94378.00;4954427;28;19914;-49
2022/11/18 08:36:36;;;;;;;;;;;11.70;70.80;;;6.69;100.00;94386.97;4952295;28;19945;-52
2022/11/18 08:39:07;;;;;;;;;;;11.80;70.70;;;6.83;100.00;94394.34;4951420;28;19922;-56
2022/11/18 08:41:42;;;;;;;;;;;12.00;70.50;;;6.94;100.00;94391.41;4964841;28;19913;-47
2022/11/18 08:44:14;;;;;;;;;;;12.20;70.30;;;7.00;100.00;94399.34;4953167;28;19914;-47
2022/11/18 08:46:41;;;;;;;;;;;12.30;70.30;;;6.99;100.00;94393.25;4950892;28;20013;-49
2022/11/18 08:49:13;;;;;;;;;;;12.30;70.10;;;7.09;100.00;94392.41;4951513;28;19917;-47
2022/11/18 08:51:39;;;;;;;;;;;12.30;70.00;;;7.02;100.00;94403.31;4922771;28;19914;-48
2022/11/18 08:54:04;;;;;;;;;;;12.40;70.00;;;6.99;100.00;94400.38;4970756;28;20000;-54
2022/11/18 08:56:30;;;;;;;;;;;12.40;69.90;;;7.02;100.00;94392.72;4971289;28;19960;-46
2022/11/18 08:58:56;;;;;;;;;;;12.40;69.80;;;7.08;100.00;94407.53;4953639;28;20395;-47
2022/11/18 09:01:22;;;;;;;;;;;12.40;69.80;;;7.04;99.99;94408.31;4954728;28;19952;-47
2022/11/18 09:03:51;;;;;;;;;;;12.50;69.80;;;7.07;100.00;94407.78;4971147;28;20291;-48
2022/11/18 09:06:24;;;;;;;;;;;12.50;69.60;;;7.21;99.88;94407.97;4959208;28;19941;-49
2022/11/18 09:08:50;;;;;;;;;;;12.60;69.50;;;7.25;99.71;94414.34;4954211;28;19914;-48
2022/11/18 09:11:22;;;;;;;;;;;12.60;69.50;;;7.22;99.27;94412.22;4953849;28;19909;-48
2022/11/18 09:13:55;;;;;;;;;;;12.50;69.50;;;7.08;98.22;94419.94;4986657;28;19913;-49
2022/11/18 09:16:22;;;;;;;;;;;12.40;69.40;;;7.03;99.97;94423.41;4953795;28;19909;-48
2022/11/18 09:18:53;;;;;;;;;;;12.30;69.50;;;6.82;99.39;94416.59;4966663;28;20033;-52
2022/11/18 09:21:23;;;;;;;;;;;12.20;69.60;;;6.86;100.00;94425.56;4952506;29;20008;-48
2022/11/18 09:23:53;;;;;;;;;;;12.10;69.60;;;6.87;100.00;94421.88;4937741;28;19913;-52
2022/11/18 09:26:22;;;;;;;;;;;12.10;69.70;;;6.83;100.00;94420.81;4970701;28;19910;-51
2022/11/18 09:28:52;;;;;;;;;;;12.10;69.80;;;6.94;100.00;94425.81;4958469;28;19914;-48
2022/11/18 09:31:18;;;;;;;;;;;12.10;69.80;;;7.08;100.00;94422.59;4961361;28;19941;-48
2022/11/18 09:33:50;;;;;;;;;;;12.20;69.80;;;7.19;100.00;94426.78;4953625;28;19909;-50
2022/11/18 09:36:25;;;;;;;;;;;12.40;70.00;;;7.24;99.53;94442.69;4959007;28;19946;-49
2022/11/18 09:38:59;;;;;;;;;;;12.50;69.90;;;7.35;98.99;94430.97;4942632;28;20302;-50
2022/11/18 09:41:53;;;;;;;;;;;12.60;69.80;;;7.39;98.05;94437.28;4968843;28;20000;-53
2022/11/18 09:44:50;;;;;;;;;;;12.70;69.80;;;7.43;98.42;94437.56;4951273;29;19918;-52
2022/11/18 09:47:34;;;;;;;;;;;12.80;69.50;;;7.43;95.56;94442.88;4955445;28;20413;-51
2022/11/18 09:50:20;;;;;;;;;;;13.00;69.30;;;7.57;95.84;94445.72;4938333;28;20005;-50
2022/11/18 09:53:18;;;;;;;;;;;13.20;69.10;;;7.65;94.41;94440.63;4955672;28;19972;-50
2022/11/18 09:55:45;;;;;;;;;;;13.40;68.80;;;7.75;93.39;94436.34;4955923;28;19953;-54
2022/11/18 09:58:36;;;;;;;;;;;13.60;68.70;;;7.72;92.77;94445.63;4956462;28;20418;-50
2022/11/18 10:01:10;;;;;;;;;;;13.70;68.30;;;7.98;94.88;94453.44;4943124;28;20353;-54
2022/11/18 10:03:38;;;;;;;;;;;13.80;68.10;;;8.01;92.03;94450.22;4969417;28;19909;-53
2022/11/18 10:06:28;;;;;;;;;;;13.80;68.10;;;7.99;90.88;94452.34;4968059;28;20024;-50
2022/11/18 10:09:36;;;;;;;;;;;13.80;68.00;;;7.98;90.05;94464.81;4974458;28;19910;-51
2022/11/18 10:12:43;;;;;;;;;;;13.80;67.90;;;7.91;89.37;94464.34;4972511;28;19914;-53
2022/11/18 10:15:33;;;;;;;;;;;13.70;67.70;;;8.04;90.23;94460.28;4956567;28;19920;-55
2022/11/18 10:18:20;;;;;;;;;;;13.70;67.80;;;7.80;89.04;94466.28;4958341;28;19909;-53
2022/11/18 10:20:49;;;;;;;;;;;13.60;67.70;;;7.88;90.65;94467.53;4973332;28;20004;-50
2022/11/18 10:23:42;;;;;;;;;;;13.50;67.60;;;7.86;89.69;94473.09;4970977;28;19921;-49
2022/11/18 10:26:08;;;;;;;;;;;13.50;67.60;;;7.89;89.67;94469.91;4955273;28;19964;-49
2022/11/18 10:28:42;;;;;;;;;;;13.50;67.60;;;7.88;89.41;94470.19;4962336;28;20312;-54
2022/11/18 10:31:17;;;;;;;;;;;13.40;67.60;;;7.97;89.71;94475.72;4941279;28;20004;-51
2022/11/18 10:33:43;;;;;;;;;;;13.40;67.60;;;7.95;89.12;94470.66;4978115;28;20049;-51
2022/11/18 10:36:32;;;;;;;;;;;13.40;67.50;;;8.08;90.23;94479.88;4973054;28;20394;-52
2022/11/18 10:39:24;;;;;;;;;;;13.40;67.60;;;7.98;88.05;94469.34;4957181;28;19937;-53
2022/11/18 10:41:54;;;;;;;;;;;13.40;67.60;;;8.00;90.50;94475.16;4950024;28;19992;-55
2022/11/18 10:44:30;;;;;;;;;;;13.40;67.50;;;7.99;89.20;94470.91;4955570;28;20269;-53
2022/11/18 10:47:23;;;;;;;;;;;13.50;67.50;;;8.05;89.49;94475.13;4972119;28;20300;-48
2022/11/18 10:49:59;;;;;;;;;;;13.60;67.20;;;8.14;88.61;94475.34;4956863;28;20315;-48
2022/11/18 10:52:27;;;;;;;;;;;13.70;67.20;;;8.27;88.46;94467.56;4971482;28;19925;-49
2022/11/18 10:55:21;;;;;;;;;;;13.70;67.20;;;8.63;87.86;94469.94;4969278;28;19997;-49
2022/11/18 10:58:15;;;;;;;;;;;13.90;67.50;;;8.43;84.99;94457.66;4963245;28;19910;-51
2022/11/18 11:00:50;;;;;;;;;;;14.10;67.30;;;8.52;86.53;94465.78;4976939;28;19914;-52
2022/11/18 11:03:34;;;;;;;;;;;14.20;66.80;;;8.25;88.83;94463.59;4952770;28;20262;-49
2022/11/18 11:06:22;;;;;;;;;;;14.20;66.10;;;7.96;90.47;94468.81;4971898;28;19909;-52
2022/11/18 11:09:12;;;;;;;;;;;14.20;65.20;;;7.94;91.44;94474.41;4962520;28;20352;-51
2022/11/18 11:11:54;;;;;;;;;;;14.10;65.10;;;8.00;91.00;94485.78;4969458;28;19933;-52
2022/11/18 11:14:52;;;;;;;;;;;13.90;65.20;;;7.86;92.03;94488.22;4956782;28;19910;-48
2022/11/18 11:17:27;;;;;;;;;;;13.70;65.20;;;7.84;93.86;94496.47;4960916;28;19949;-52
2022/11/18 11:20:22;;;;;;;;;;;13.40;65.40;;;7.76;94.40;94488.28;4969291;28;20012;-49
2022/11/18 11:22:48;;;;;;;;;;;13.20;65.70;;;7.59;93.61;94494.72;4941209;28;20115;-49
2022/11/18 11:25:20;;;;;;;;;;;13.00;66.10;;;7.35;96.00;94489.25;4970510;28;19964;-49
2022/11/18 11:28:27;;;;;;;;;;;12.80;66.10;;;7.26;96.64;94482.13;4967844;28;19921;-53
2022/11/18 11:31:12;;;;;;;;;;;12.60;66.40;;;7.22;97.94;94483.75;4953836;28;19913;-50
2022/11/18 11:33:57;;;;;;;;;;;12.50;66.70;;;7.22;99.49;94483.75;4969163;28;20016;-49
2022/11/18 11:36:41;;;;;;;;;;;12.40;66.90;;;7.22;99.93;94489.81;4958106;28;20008;-51
2022/11/18 11:39:43;;;;;;;;;;;12.40;67.00;;;7.23;99.43;94498.56;4951457;28;19910;-51
2022/11/18 11:42:59;;;;;;;;;;;12.40;67.20;;;7.21;98.83;94492.72;4951486;28;19910;-49
2022/11/18 11:46:01;;;;;;;;;;;12.30;67.40;;;7.08;97.99;94488.78;4950644;28;19960;-50
2022/11/18 11:48:50;;;;;;;;;;;12.20;67.50;;;7.16;99.78;94494.34;4968433;28;19910;-51
2022/11/18 11:51:44;;;;;;;;;;;12.20;67.70;;;7.10;99.23;94495.41;4955307;28;19916;-54
2022/11/18 11:54:23;;;;;;;;;;;12.20;67.80;;;7.13;99.01;94494.88;4968820;28;19910;-48
2022/11/18 11:57:02;;;;;;;;;;;12.30;67.80;;;7.23;98.69;94501.22;4969459;28;19916;-49
2022/11/18 11:59:29;;;;;;;;;;;12.40;68.00;;;7.34;99.68;94498.28;4941096;28;19925;-50
2022/11/18 12:02:40;;;;;;;;;;;12.60;68.00;;;7.41;97.42;94500.63;4955691;28;19917;-49
2022/11/18 12:05:16;;;;;;;;;;;12.80;68.10;;;7.48;97.10;94505.63;4967479;28;21049;-54
2022/11/18 12:07:55;;;;;;;;;;;12.90;67.80;;;7.49;95.51;94502.72;4953207;28;19909;-49
2022/11/18 12:10:49;;;;;;;;;;;13.00;67.60;;;7.59;96.93;94505.31;4966038;28;19925;-49
2022/11/18 12:13:36;;;;;;;;;;;13.10;67.40;;;7.47;95.44;94502.19;4966119;28;19976;-49